Time;durP1;ratioP1;P1;durP2;ratioP2;P2;SDS_P1;SDS_P2;PMS_P1;PMS_P2;Temp;Humidity;BMP_temperature;BMP_pressure;BME280_temperature;BME280_humidity;BME280_pressure;Samples;Min_cycle;Max_cycle;Signal;HPM_P1;HPM_P2
2022/03/01 00:00:09;;;;;;;12.25;9.02;;;;;;;-0.35;75.72;102114.81;5044581;28;20120;-59
2022/03/01 00:03:15;;;;;;;13.95;8.23;;;;;;;-0.32;75.86;102119.13;5032917;28;20060;-59
2022/03/01 00:06:19;;;;;;;13.43;7.50;;;;;;;-0.38;75.73;102108.75;5033432;28;20111;-59
2022/03/01 00:09:22;;;;;;;12.20;7.78;;;;;;;-0.47;75.95;102124.88;5032432;28;20060;-59
2022/03/01 00:12:26;;;;;;;11.85;7.85;;;;;;;-0.50;76.65;102119.69;5036114;28;20575;-59
2022/03/01 00:15:29;;;;;;;11.32;8.10;;;;;;;-0.43;76.39;102116.38;5051982;28;20118;-59
2022/03/01 00:18:32;;;;;;;10.75;7.90;;;;;;;-0.35;76.47;102122.53;5051867;28;20103;-59
2022/03/01 00:21:36;;;;;;;11.93;9.35;;;;;;;-0.35;76.26;102119.06;5063186;28;20612;-59
2022/03/01 00:24:39;;;;;;;;;;;;;;;-0.39;75.92;102128.44;5052391;28;20460;-59
2022/03/01 00:27:42;;;;;;;12.35;9.10;;;;;;;-0.41;75.61;102126.69;5052179;28;19967;-59
2022/03/01 00:30:45;;;;;;;14.75;9.63;;;;;;;-0.44;75.87;102124.94;5052880;28;20051;-59
2022/03/01 00:33:49;;;;;;;;;;;;;;;-0.45;76.00;102119.75;5053012;28;20048;-59
2022/03/01 00:36:52;;;;;;;11.63;7.20;;;;;;;-0.42;75.86;102124.94;5052782;28;20372;-59
2022/03/01 00:39:55;;;;;;;12.00;8.65;;;;;;;-0.37;75.95;102120.78;5074343;28;20051;-59
2022/03/01 00:42:58;;;;;;;12.85;7.97;;;;;;;-0.41;75.69;102117.28;5051974;28;20048;-59
2022/03/01 00:46:02;;;;;;;13.20;8.70;;;;;;;-0.56;75.94;102119.56;5052724;28;20525;-59
2022/03/01 00:49:06;;;;;;;11.50;8.07;;;;;;;-0.61;76.64;102126.31;5053018;28;20063;-59
2022/03/01 00:52:09;;;;;;;12.02;7.97;;;;;;;-0.62;76.43;102127.16;5052320;28;20476;-59
2022/03/01 00:55:12;;;;;;;22.05;11.85;;;;;;;-0.67;76.53;102121.03;5036444;28;20121;-59
2022/03/01 00:58:16;;;;;;;14.15;9.55;;;;;;;-0.74;76.72;102128.63;5032609;28;20114;-59
2022/03/01 01:01:19;;;;;;;11.63;7.93;;;;;;;-0.69;76.77;102131.31;5032065;28;20083;-59
2022/03/01 01:04:23;;;;;;;12.27;8.18;;;;;;;-0.66;76.53;102133.94;5032658;28;20056;-59
2022/03/01 01:07:26;;;;;;;12.50;8.93;;;;;;;-0.85;75.93;102125.00;5032220;28;20048;-59
2022/03/01 01:10:29;;;;;;;;;;;;;;;-1.08;76.57;102131.38;5032173;28;20087;-59
2022/03/01 01:13:33;;;;;;;12.38;8.48;;;;;;;-0.97;76.50;102135.00;5032914;28;19963;-59
2022/03/01 01:16:36;;;;;;;14.40;9.18;;;;;;;-0.80;76.40;102125.06;5031816;28;20141;-59
2022/03/01 01:19:40;;;;;;;13.05;8.07;;;;;;;-0.72;76.17;102134.66;5042556;28;20259;-59
2022/03/01 01:22:44;;;;;;;14.90;9.52;;;;;;;-0.69;76.27;102125.31;5042893;28;20060;-59
2022/03/01 01:25:47;;;;;;;13.23;8.70;;;;;;;-0.69;76.46;102122.72;5042688;28;20084;-59
2022/03/01 01:28:50;;;;;;;15.07;8.52;;;;;;;-0.68;76.08;102124.47;5031958;28;20092;-59
2022/03/01 01:31:53;;;;;;;14.20;8.15;;;;;;;-0.77;76.46;102120.84;5031677;28;20052;-59
2022/03/01 01:34:57;;;;;;;;;;;;;;;-0.90;76.39;102118.88;5031279;28;20085;-59
2022/03/01 01:38:01;;;;;;;13.13;8.32;;;;;;;-0.86;75.70;102118.13;5031537;28;19924;-59
2022/03/01 01:41:04;;;;;;;13.73;8.93;;;;;;;-0.84;75.46;102113.00;5031562;28;20048;-59
2022/03/01 01:44:08;;;;;;;15.23;8.98;;;;;;;-0.95;76.34;102110.25;5031857;28;20060;-59
2022/03/01 01:47:11;;;;;;;13.10;8.63;;;;;;;-1.01;77.11;102110.97;5031165;28;20056;-59
2022/03/01 01:50:15;;;;;;;15.68;8.65;;;;;;;-0.95;76.96;102105.09;5031508;28;20129;-59
2022/03/01 01:53:19;;;;;;;13.35;9.30;;;;;;;-1.00;76.93;102106.69;5052921;28;20052;-59
2022/03/01 01:56:22;;;;;;;12.38;8.18;;;;;;;-1.03;77.39;102106.63;5038288;28;20047;-59
2022/03/01 01:59:25;;;;;;;11.68;8.55;;;;;;;-0.99;77.06;102099.03;5031060;28;20450;-59
2022/03/01 02:02:29;;;;;;;11.60;8.38;;;;;;;-1.04;77.54;102099.78;5031357;28;20040;-59
2022/03/01 02:05:32;;;;;;;15.57;8.73;;;;;;;-1.03;77.23;102111.78;5031109;28;20104;-59
2022/03/01 02:08:35;;;;;;;13.70;9.00;;;;;;;-1.04;77.55;102104.91;5029740;28;20107;-59
2022/03/01 02:11:39;;;;;;;12.68;8.95;;;;;;;-0.98;76.72;102105.91;5058173;28;20134;-59
2022/03/01 02:14:42;;;;;;;15.23;10.95;;;;;;;-1.05;77.26;102103.19;5050651;28;20060;-59
2022/03/01 02:17:45;;;;;;;15.77;9.98;;;;;;;-1.13;77.06;102109.84;5051312;28;20080;-59
2022/03/01 02:20:49;;;;;;;16.65;8.05;;;;;;;-1.28;76.97;102111.25;5061590;28;20426;-59
2022/03/01 02:23:52;;;;;;;12.38;8.77;;;;;;;-1.17;76.98;102112.34;5050551;28;20106;-59
2022/03/01 02:26:57;;;;;;;13.40;8.95;;;;;;;-1.10;75.59;102100.50;5050919;28;20414;-59
2022/03/01 02:30:00;;;;;;;12.63;9.57;;;;;;;-1.07;76.21;102109.97;5050416;28;20072;-59
2022/03/01 02:33:04;;;;;;;13.05;9.27;;;;;;;-1.10;76.80;102120.19;5038692;28;20056;-59
2022/03/01 02:36:07;;;;;;;14.23;8.80;;;;;;;-1.07;76.76;102115.13;5050393;28;20043;-59
2022/03/01 02:39:10;;;;;;;15.63;8.32;;;;;;;-1.11;77.21;102115.91;5050480;28;20102;-59
2022/03/01 02:42:13;;;;;;;12.85;8.63;;;;;;;-1.12;76.96;102116.69;5039112;28;20053;-59
2022/03/01 02:45:18;;;;;;;13.30;9.27;;;;;;;-1.22;77.33;102103.66;5030190;28;20143;-59
2022/03/01 02:48:21;;;;;;;13.60;9.45;;;;;;;-1.27;77.23;102107.00;5031147;28;20450;-59
2022/03/01 02:51:25;;;;;;;;;;;;;;;-1.22;77.20;102097.69;5031385;28;20049;-59
2022/03/01 02:54:28;;;;;;;9.50;6.37;;;;;;;-1.25;76.96;102101.03;5029704;28;19967;-59
2022/03/01 02:57:31;;;;;;;15.82;8.85;;;;;;;-1.27;77.22;102097.59;5037272;28;20118;-59
2022/03/01 03:00:34;;;;;;;11.25;8.60;;;;;;;-1.26;77.04;102099.31;5030177;28;20569;-59
2022/03/01 03:03:38;;;;;;;17.10;8.98;;;;;;;-1.27;77.21;102107.84;5031281;28;20040;-59
2022/03/01 03:06:41;;;;;;;13.52;9.15;;;;;;;-1.38;77.35;102114.44;5030934;28;20056;-59
2022/03/01 03:09:45;;;;;;;16.90;10.25;;;;;;;-1.57;77.45;102112.28;5031074;28;20521;-59
2022/03/01 03:12:48;;;;;;;17.77;10.07;;;;;;;-1.62;77.38;102108.78;5049262;28;20055;-59
2022/03/01 03:15:52;;;;;;;13.55;9.07;;;;;;;-1.50;76.76;102104.78;5050323;28;20509;-59
2022/03/01 03:18:55;;;;;;;11.73;8.13;;;;;;;-1.37;76.43;102110.16;5061847;28;20043;-59
2022/03/01 03:21:58;;;;;;;15.77;9.20;;;;;;;-1.33;76.87;102112.84;5050844;28;20048;-59
2022/03/01 03:25:02;;;;;;;12.98;9.05;;;;;;;-1.37;76.69;102115.31;5052025;28;20060;-59
2022/03/01 03:28:06;;;;;;;12.38;8.52;;;;;;;-1.35;76.42;102119.63;5054690;28;20047;-59
2022/03/01 03:31:09;;;;;;;11.93;8.10;;;;;;;-1.39;77.05;102122.13;5054523;28;20043;-59
2022/03/01 03:34:12;;;;;;;13.18;8.88;;;;;;;-1.46;76.80;102119.41;5054399;28;20107;-59
2022/03/01 03:37:15;;;;;;;17.17;8.93;;;;;;;-1.43;76.83;102126.31;5054170;28;20116;-59
2022/03/01 03:40:19;;;;;;;12.60;9.15;;;;;;;-1.44;77.29;102122.00;5053634;28;20136;-59
2022/03/01 03:43:22;;;;;;;;;;;;;;;-1.54;77.04;102132.88;5035192;28;20068;-59
2022/03/01 03:46:26;;;;;;;14.23;8.68;;;;;;;-1.59;77.39;102119.09;5034424;28;20020;-59
2022/03/01 03:49:29;;;;;;;14.27;8.88;;;;;;;-1.57;77.69;102118.28;5034289;28;20129;-59
2022/03/01 03:52:32;;;;;;;12.35;8.30;;;;;;;-1.56;77.65;102122.59;5034346;28;20091;-59
2022/03/01 03:55:36;;;;;;;13.27;8.63;;;;;;;-1.55;77.69;102124.31;5047608;28;20051;-59
2022/03/01 03:58:39;;;;;;;15.50;8.90;;;;;;;-1.54;76.97;102130.31;4693381;28;10000423;-59
2022/03/01 04:01:43;;;;;;;11.55;8.73;;;;;;;-1.74;77.04;102140.97;5031346;28;20063;-59
2022/03/01 04:04:47;;;;;;;13.80;9.43;;;;;;;-1.76;77.09;102131.50;5052582;28;20426;-59
2022/03/01 04:07:50;;;;;;;20.58;9.50;;;;;;;-1.72;77.43;102141.91;5030695;28;20068;-59
2022/03/01 04:10:56;;;;;;;12.15;9.00;;;;;;;-1.67;77.43;102135.16;5030455;28;20079;-59
2022/03/01 04:14:01;;;;;;;15.38;9.32;;;;;;;-1.63;77.51;102138.66;5030705;28;20660;-59
2022/03/01 04:17:04;;;;;;;13.35;9.18;;;;;;;-1.60;77.26;102136.16;5040967;28;20053;-59
2022/03/01 04:20:08;;;;;;;13.65;8.93;;;;;;;-1.74;77.37;102140.97;5029303;28;20111;-59
2022/03/01 04:23:13;;;;;;;13.05;10.00;;;;;;;-1.66;77.43;102144.59;5030193;28;20048;-59
2022/03/01 04:26:16;;;;;;;15.70;8.68;;;;;;;-1.64;77.24;102140.34;5030448;28;20509;-59
2022/03/01 04:29:20;;;;;;;;;;;;;;;-1.71;77.35;102135.06;5030892;28;20141;-59
2022/03/01 04:32:23;;;;;;;12.25;8.60;;;;;;;-1.65;76.68;102130.94;5029758;28;19971;-59
2022/03/01 04:35:27;;;;;;;13.13;8.50;;;;;;;-1.64;76.83;102132.66;5029664;28;20414;-59
2022/03/01 04:38:31;;;;;;;15.88;10.00;;;;;;;-1.70;76.42;102132.53;5029636;28;20064;-59
2022/03/01 04:41:34;;;;;;;13.88;9.73;;;;;;;-1.71;76.63;102132.50;5030206;28;20082;-59
2022/03/01 04:44:37;;;;;;;13.55;9.77;;;;;;;-1.79;77.20;102140.00;5029722;28;20048;-59
2022/03/01 04:47:40;;;;;;;15.98;10.57;;;;;;;-1.80;77.95;102137.41;5040353;28;20360;-59
2022/03/01 04:50:44;;;;;;;;;;;;;;;-1.81;76.63;102128.00;5030764;28;20056;-59
2022/03/01 04:53:48;;;;;;;14.15;9.13;;;;;;;-1.85;77.04;102132.19;5029056;28;19975;-59
2022/03/01 04:56:51;;;;;;;13.07;9.80;;;;;;;-1.83;76.97;102133.06;5029629;28;20560;-59
2022/03/01 04:59:54;;;;;;;14.25;8.88;;;;;;;-1.82;76.58;102139.06;5029376;28;20127;-59
2022/03/01 05:02:58;;;;;;;16.75;9.45;;;;;;;-1.90;76.89;102133.75;5029685;28;20045;-59
2022/03/01 05:06:02;;;;;;;16.50;9.90;;;;;;;-1.92;77.31;102127.69;5028701;28;20152;-59
2022/03/01 05:09:05;;;;;;;16.58;10.20;;;;;;;-1.96;77.44;102133.59;5029428;28;20045;-59
2022/03/01 05:12:09;;;;;;;12.27;8.98;;;;;;;-1.96;77.54;102134.44;5038674;28;20413;-59
2022/03/01 05:15:13;;;;;;;;;;;;;;;-2.08;77.99;102134.16;4339843;28;10000899;-59
2022/03/01 05:18:16;;;;;;;17.02;8.82;;;;;;;-2.04;78.06;102130.84;5025168;28;19971;-59
2022/03/01 05:21:19;;;;;;;14.38;9.25;;;;;;;-2.00;77.79;102131.78;5024918;28;20083;-59
2022/03/01 05:24:23;;;;;;;17.08;9.85;;;;;;;-2.00;77.82;102131.78;5026177;28;20499;-59
2022/03/01 05:27:26;;;;;;;16.02;9.27;;;;;;;-2.00;77.40;102131.78;5026334;28;20044;-59
2022/03/01 05:30:30;;;;;;;13.18;10.00;;;;;;;-1.95;76.75;102137.88;5050181;28;20466;-59
2022/03/01 05:33:33;;;;;;;16.58;9.68;;;;;;;-1.95;75.79;102136.19;5033229;28;20406;-59
2022/03/01 05:36:37;;;;;;;14.70;11.65;;;;;;;-2.05;76.34;102135.91;5047182;28;20060;-59
2022/03/01 05:39:40;;;;;;;;;;;;;;;-2.11;77.47;102137.53;5048310;28;20506;-59
2022/03/01 05:42:44;;;;;;;13.18;9.52;;;;;;;-2.12;77.42;102138.31;5034897;28;20058;-59
2022/03/01 05:45:48;;;;;;;13.63;8.82;;;;;;;-2.16;77.45;102136.53;5047117;28;20075;-59
2022/03/01 05:48:52;;;;;;;16.70;9.93;;;;;;;-2.11;76.81;102140.09;5046647;28;20048;-59
2022/03/01 05:51:56;;;;;;;13.73;9.48;;;;;;;-2.23;77.07;102137.19;5046676;28;20106;-59
2022/03/01 05:54:59;;;;;;;13.68;8.70;;;;;;;-2.14;77.13;102145.13;5047904;28;20048;-60
2022/03/01 05:58:02;;;;;;;9.88;7.60;;;;;;;-2.13;77.02;102151.13;5046831;28;20106;-59
2022/03/01 06:01:06;;;;;;;10.88;8.57;;;;;;;-2.14;77.08;102150.25;5048086;28;20556;-59
2022/03/01 06:04:09;;;;;;;16.00;9.43;;;;;;;-2.16;77.33;102151.03;5047413;28;20047;-59
2022/03/01 06:07:14;;;;;;;14.95;9.68;;;;;;;-2.18;77.33;102158.66;5046767;28;20710;-59
2022/03/01 06:10:17;;;;;;;13.45;9.60;;;;;;;-2.13;77.38;102151.13;5047149;28;20107;-59
2022/03/01 06:13:20;;;;;;;;;;;;;;;-2.12;77.17;102147.72;5047198;28;20051;-60
2022/03/01 06:16:24;;;;;;;14.45;8.63;;;;;;;-2.11;76.68;102155.47;5046926;28;19970;-59
2022/03/01 06:19:27;;;;;;;15.40;8.73;;;;;;;-2.11;76.37;102147.78;5047079;28;20136;-59
2022/03/01 06:22:31;;;;;;;12.48;8.90;;;;;;;-2.21;76.86;102150.91;5047656;28;20528;-59
2022/03/01 06:25:34;;;;;;;14.23;9.60;;;;;;;-2.29;77.52;102165.22;5026230;28;20045;-59
2022/03/01 06:28:37;;;;;;;15.93;10.52;;;;;;;-2.35;78.11;102165.06;5038423;28;20409;-60
2022/03/01 06:31:41;;;;;;;13.75;8.73;;;;;;;-2.24;78.17;102160.19;5045410;28;20138;-59
2022/03/01 06:34:44;;;;;;;15.07;9.32;;;;;;;-2.20;77.19;102165.47;5047178;28;20055;-59
2022/03/01 06:37:47;;;;;;;14.65;9.63;;;;;;;-2.27;77.14;102166.09;5047681;28;20087;-59
2022/03/01 06:40:55;;;;;;;16.58;10.75;;;;;;;-2.38;77.41;102177.78;5039786;28;20399;-59
2022/03/01 06:43:59;;;;;;;17.90;9.35;;;;;;;-2.40;78.04;102181.97;5025990;28;20091;-59
2022/03/01 06:47:04;;;;;;;13.52;8.55;;;;;;;-2.26;77.50;102190.94;5044799;28;20386;-60
2022/03/01 06:50:08;;;;;;;11.77;8.55;;;;;;;-2.22;77.15;102187.59;5026999;28;20099;-59
2022/03/01 06:53:14;;;;;;;12.38;8.82;;;;;;;-2.14;77.18;102190.38;5025244;28;20576;-60
2022/03/01 06:56:18;;;;;;;15.90;10.23;;;;;;;-2.10;77.30;102192.22;5026465;28;20531;-59
2022/03/01 06:59:21;;;;;;;15.77;9.45;;;;;;;-2.12;77.47;102194.72;5028832;28;20132;-59
2022/03/01 07:02:27;;;;;;;17.08;8.82;;;;;;;-1.96;77.08;102190.84;5051511;28;20553;-59
2022/03/01 07:05:31;;;;;;;16.23;9.93;;;;;;;-2.03;77.24;102190.66;5061722;28;20538;-59
2022/03/01 07:08:34;;;;;;;12.60;8.48;;;;;;;-2.05;77.59;102194.88;5050966;28;20063;-59
2022/03/01 07:11:37;;;;;;;14.73;10.60;;;;;;;-2.12;77.76;102179.34;5048839;28;20044;-59
2022/03/01 07:14:41;;;;;;;14.00;9.02;;;;;;;-2.07;77.60;102181.13;5049668;28;20076;-59
2022/03/01 07:17:45;;;;;;;14.50;8.80;;;;;;;-2.09;77.60;102173.44;5049311;28;20068;-59
2022/03/01 07:20:48;;;;;;;12.68;8.25;;;;;;;-2.01;77.43;102181.31;5061455;28;20048;-59
2022/03/01 07:23:52;;;;;;;12.68;8.48;;;;;;;-2.00;77.73;102183.06;5051505;28;20048;-59
2022/03/01 07:26:55;;;;;;;16.38;9.13;;;;;;;-2.02;77.64;102175.31;5050120;28;20513;-59
2022/03/01 07:29:59;;;;;;;14.45;9.32;;;;;;;-1.88;77.00;102171.41;5037487;28;20095;-59
2022/03/01 07:33:02;;;;;;;13.32;8.63;;;;;;;-1.85;76.85;102172.31;5049420;28;20079;-59
2022/03/01 07:36:05;;;;;;;13.30;9.50;;;;;;;-1.76;76.74;102170.84;5049732;28;20335;-59
2022/03/01 07:39:08;;;;;;;11.45;8.50;;;;;;;-1.64;76.72;102171.13;5050241;28;20056;-59
2022/03/01 07:42:12;;;;;;;15.93;9.55;;;;;;;-1.51;76.75;102176.56;5049722;28;20444;-59
2022/03/01 07:45:17;;;;;;;13.60;9.43;;;;;;;-1.44;77.09;102175.88;5048212;28;20528;-59
2022/03/01 07:48:20;;;;;;;13.40;8.88;;;;;;;-1.32;76.42;102172.75;5048742;28;20547;-59
2022/03/01 07:51:24;;;;;;;14.57;9.63;;;;;;;-1.26;76.05;102168.59;5049325;28;20052;-59
2022/03/01 07:54:27;;;;;;;12.82;8.82;;;;;;;-1.19;75.88;102167.91;5061311;28;20143;-59
2022/03/01 07:57:31;;;;;;;17.55;9.60;;;;;;;-1.03;75.99;102165.69;5048994;28;20052;-59
2022/03/01 08:00:34;;;;;;;17.17;10.55;;;;;;;-0.86;76.20;102160.91;5050163;28;20040;-59
2022/03/01 08:03:38;;;;;;;16.70;10.18;;;;;;;-0.78;76.19;102155.09;5049898;28;20137;-59
2022/03/01 08:06:41;;;;;;;15.43;9.98;;;;;;;-0.69;76.46;102153.56;5049629;28;20036;-59
2022/03/01 08:09:44;;;;;;;16.65;9.95;;;;;;;-0.59;76.94;102151.19;5048341;28;20689;-61
2022/03/01 08:12:48;;;;;;;16.48;9.18;;;;;;;-0.55;76.71;102152.97;5049366;28;20040;-59
2022/03/01 08:15:52;;;;;;;;;;;;;;;-0.63;76.93;102154.53;5050310;28;20163;-59
2022/03/01 08:18:55;;;;;;;11.77;7.10;;;;;;;-0.62;76.25;102157.97;5049567;28;19924;-59
2022/03/01 08:21:58;;;;;;;12.75;8.45;;;;;;;-0.48;76.08;102159.09;5049302;28;20060;-59
2022/03/01 08:25:02;;;;;;;16.10;9.35;;;;;;;-0.31;75.62;102157.72;5049199;28;20279;-59
2022/03/01 08:28:06;;;;;;;13.15;9.55;;;;;;;-0.09;74.70;102147.84;5037834;28;20059;-59
2022/03/01 08:31:09;;;;;;;16.98;10.15;;;;;;;0.03;75.20;102144.59;5048885;28;20765;-59
2022/03/01 08:34:13;;;;;;;17.00;10.43;;;;;;;0.17;74.98;102144.00;5050149;28;20043;-59
2022/03/01 08:37:17;;;;;;;22.10;13.90;;;;;;;0.30;74.97;102146.78;5049223;28;20098;-59
2022/03/01 08:40:22;;;;;;;27.08;11.85;;;;;;;0.49;73.33;102142.78;5046975;28;20102;-60
2022/03/01 08:43:25;;;;;;;19.73;11.88;;;;;;;0.72;73.32;102143.97;5042637;28;20043;-59
2022/03/01 08:46:28;;;;;;;19.73;12.75;;;;;;;0.87;72.70;102146.78;5041007;28;20114;-59
2022/03/01 08:49:32;;;;;;;;;;;;;;;0.94;72.33;102134.84;5048777;28;20043;-59
2022/03/01 08:52:35;;;;;;;19.17;12.48;;;;;;;1.07;71.56;102129.00;5048495;28;20359;-59
2022/03/01 08:55:39;;;;;;;16.98;12.35;;;;;;;1.22;70.97;102119.72;5047897;28;20080;-60
2022/03/01 08:58:43;;;;;;;17.42;11.90;;;;;;;1.29;71.11;102118.94;5048324;28;20052;-60
2022/03/01 09:01:46;;;;;;;17.25;12.55;;;;;;;1.39;70.31;102118.19;5049254;28;20394;-59
2022/03/01 09:04:49;;;;;;;18.90;11.85;;;;;;;1.49;68.76;102116.59;5048916;28;20521;-60
2022/03/01 09:07:53;;;;;;;18.85;13.25;;;;;;;1.55;69.80;102112.34;5046283;28;20106;-59
2022/03/01 09:10:56;;;;;;;22.02;13.13;;;;;;;1.66;68.39;102109.00;5046918;28;20039;-60
2022/03/01 09:13:59;;;;;;;;;;;;;;;1.78;67.36;102102.25;5049012;28;20052;-60
2022/03/01 09:17:03;;;;;;;16.10;11.40;;;;;;;1.81;67.00;102104.00;5058971;28;19939;-59
2022/03/01 09:20:06;;;;;;;18.95;13.15;;;;;;;2.01;66.53;102112.81;5048071;28;20052;-59
2022/03/01 09:23:09;;;;;;;;;;;;;;;2.07;65.63;102112.88;5048548;28;20106;-59
2022/03/01 09:26:15;;;;;;;20.27;12.23;;;;;;;2.21;65.14;102114.69;5046989;28;19921;-59
2022/03/01 09:29:20;;;;;;;18.85;12.43;;;;;;;2.35;64.30;102112.19;5047281;28;20040;-59
2022/03/01 09:32:24;;;;;;;18.25;12.75;;;;;;;2.46;63.64;102106.25;5046849;28;20047;-60
2022/03/01 09:35:27;;;;;;;21.20;13.88;;;;;;;2.62;64.30;102106.38;5047029;28;20086;-59
2022/03/01 09:38:30;;;;;;;18.67;12.65;;;;;;;2.68;62.85;102106.38;5047307;28;20051;-57
2022/03/01 09:41:37;;;;;;;21.30;13.05;;;;;;;2.60;62.14;102108.91;5027897;28;20067;-59
2022/03/01 09:44:42;;;;;;;22.80;12.27;;;;;;;2.62;61.53;102111.53;5028041;28;20043;-59
2022/03/01 09:47:45;;;;;;;17.77;11.23;;;;;;;2.67;63.29;102104.66;5028041;28;20099;-59
2022/03/01 09:50:49;;;;;;;22.67;12.07;;;;;;;2.63;61.26;102100.34;5041103;28;20043;-59
2022/03/01 09:53:53;;;;;;;21.48;12.57;;;;;;;2.78;60.98;102108.16;5047838;28;20079;-60
2022/03/01 09:56:56;;;;;;;17.80;11.35;;;;;;;2.89;61.20;102101.31;5048625;28;20721;-59
2022/03/01 10:00:00;;;;;;;22.95;13.00;;;;;;;3.05;59.61;102098.81;5047268;28;20059;-59
2022/03/01 10:03:03;;;;;;;18.20;12.32;;;;;;;3.19;59.18;102100.59;5047361;28;20040;-59
2022/03/01 10:06:12;;;;;;;25.45;12.82;;;;;;;3.32;59.68;102098.91;5056326;28;20052;-59
2022/03/01 10:09:18;;;;;;;18.48;11.18;;;;;;;3.36;58.89;102090.31;5040835;28;20044;-60
2022/03/01 10:12:28;;;;;;;18.88;12.10;;;;;;;3.44;59.75;102096.34;5027077;28;20622;-59
2022/03/01 10:15:33;;;;;;;18.25;12.23;;;;;;;3.48;58.17;102092.06;5027231;28;20048;-59
2022/03/01 10:18:39;;;;;;;17.65;11.55;;;;;;;3.46;57.08;102092.03;5038456;28;20047;-59
2022/03/01 10:21:48;;;;;;;17.00;11.30;;;;;;;3.62;57.78;102087.75;5046483;28;20048;-59
2022/03/01 10:24:51;;;;;;;17.27;10.65;;;;;;;3.85;56.07;102081.75;5046932;28;20059;-59
2022/03/01 10:27:55;;;;;;;17.48;11.38;;;;;;;4.10;57.29;102083.47;5046304;28;20067;-60
2022/03/01 10:31:15;;;;;;;16.70;11.07;;;;;;;4.32;53.72;102084.31;5046893;28;20078;-60
2022/03/01 10:34:18;;;;;;;20.35;11.57;;;;;;;4.51;53.57;102081.69;5045877;28;20160;-59
2022/03/01 10:37:30;;;;;;;17.27;10.57;;;;;;;4.76;53.54;102075.56;5047325;28;20147;-59
2022/03/01 10:40:34;;;;;;;14.63;10.43;;;;;;;4.86;52.93;102086.78;5046668;28;20342;-59
2022/03/01 10:43:39;;;;;;;17.80;11.68;;;;;;;4.92;51.18;102072.94;5047035;28;20090;-59
2022/03/01 10:46:48;;;;;;;18.17;10.85;;;;;;;4.96;51.17;102074.63;5057407;28;20624;-60
2022/03/01 10:50:01;;;;;;;17.50;11.15;;;;;;;4.98;50.14;102076.38;5037008;28;20519;-59
2022/03/01 10:53:06;;;;;;;16.65;11.05;;;;;;;4.93;48.74;102066.88;5027054;28;20068;-59
2022/03/01 10:56:11;;;;;;;16.50;10.20;;;;;;;5.04;48.86;102054.72;5027843;28;20411;-59
2022/03/01 10:59:15;;;;;;;16.15;9.20;;;;;;;5.19;47.71;102067.59;5032976;28;20106;-60
2022/03/01 11:02:18;;;;;;;;;;;;;;;5.23;48.28;102060.66;5045619;28;20040;-60
2022/03/01 11:05:22;;;;;;;15.93;9.98;;;;;;;5.44;48.70;102059.69;5048299;28;19920;-59
2022/03/01 11:08:38;;;;;;;13.75;8.75;;;;;;;5.55;46.19;102065.66;5044350;28;20052;-59
2022/03/01 11:11:42;;;;;;;16.27;9.38;;;;;;;5.60;45.15;102069.09;5026452;28;20518;-60
2022/03/01 11:14:54;;;;;;;13.73;9.73;;;;;;;5.53;44.20;102059.63;5028533;28;20105;-59
2022/03/01 11:18:22;;;;;;;15.02;9.27;;;;;;;5.62;44.88;102045.75;5045384;28;20413;-60
2022/03/01 11:21:27;;;;;;;15.07;8.60;;;;;;;5.68;45.04;102048.25;5058810;28;20048;-60
2022/03/01 11:24:31;;;;;;;15.90;9.27;;;;;;;5.91;45.21;102028.19;5048282;28;20093;-60
2022/03/01 11:27:43;;;;;;;13.65;8.88;;;;;;;5.89;44.35;102011.75;5047073;28;20461;-60
2022/03/01 11:31:36;;;;;;;14.68;9.20;;;;;;;6.00;44.19;102019.50;5047652;28;20128;-61
2022/03/01 11:34:40;;;;;;;14.70;9.57;;;;;;;5.95;42.66;102005.69;5048326;28;20175;-60
2022/03/01 11:37:46;;;;;;;12.43;8.52;;;;;;;5.90;42.31;101999.63;5047818;28;20418;-57
2022/03/01 11:40:51;;;;;;;11.70;9.13;;;;;;;5.94;43.40;101993.59;5027276;28;20142;-60
2022/03/01 11:43:59;;;;;;;14.02;8.45;;;;;;;6.10;43.44;101989.97;5024910;28;20124;-60
2022/03/01 11:47:09;;;;;;;11.80;8.85;;;;;;;6.25;43.43;101984.59;5027275;28;20050;-60
2022/03/01 11:50:15;;;;;;;11.63;8.52;;;;;;;6.29;43.65;101970.69;5029080;28;20072;-60
2022/03/01 11:53:19;;;;;;;15.70;10.38;;;;;;;6.33;43.30;101970.66;5029658;28;20137;-60
2022/03/01 11:56:22;;;;;;;21.42;13.15;;;;;;;6.25;41.78;101963.81;5036493;28;20052;-60
2022/03/01 11:59:26;;;;;;;24.92;17.00;;;;;;;6.03;41.47;101959.72;5049389;28;20056;-60
2022/03/01 12:02:30;;;;;;;49.88;25.48;;;;;;;5.89;40.77;101951.19;5050146;28;20064;-60
2022/03/01 12:05:36;;;;;;;24.45;15.82;;;;;;;5.98;42.43;101958.91;5050537;28;20451;-60
2022/03/01 12:08:39;;;;;;;18.30;11.07;;;;;;;6.03;40.98;101957.13;5049293;28;20094;-60
2022/03/01 12:11:45;;;;;;;21.92;13.07;;;;;;;6.01;40.52;101943.31;5049693;28;20119;-60
2022/03/01 12:14:54;;;;;;;19.55;9.30;;;;;;;6.12;40.81;101944.03;5059636;28;20102;-60
2022/03/01 12:18:09;;;;;;;14.93;8.30;;;;;;;6.39;42.13;101940.28;5049228;28;20098;-60
2022/03/01 12:21:14;;;;;;;13.13;9.15;;;;;;;6.38;40.77;101930.78;5049101;28;20122;-60
2022/03/01 12:24:18;;;;;;;23.17;8.90;;;;;;;6.61;41.93;101927.88;5049334;28;20538;-60
2022/03/01 12:27:21;;;;;;;14.48;10.77;;;;;;;6.66;39.83;101928.66;5071572;28;20059;-60
2022/03/01 12:30:25;;;;;;;19.23;9.60;;;;;;;6.56;39.50;101929.66;5049186;28;20469;-60
2022/03/01 12:33:28;;;;;;;11.15;8.35;;;;;;;6.92;40.76;101930.03;5048953;28;20052;-60
2022/03/01 12:36:36;;;;;;;15.77;9.50;;;;;;;7.02;38.22;101926.44;5049076;28;20098;-60
2022/03/01 12:39:40;;;;;;;16.52;9.40;;;;;;;7.32;39.05;101924.22;5044226;28;20418;-60
2022/03/01 12:42:47;;;;;;;12.30;8.68;;;;;;;7.34;37.71;101919.81;5049307;28;20170;-60
2022/03/01 12:45:51;;;;;;;14.93;9.18;;;;;;;7.31;37.26;101922.50;5048439;28;20052;-60
2022/03/01 12:49:20;;;;;;;;;;;;;;;7.23;35.91;101915.66;5049816;28;20071;-60
2022/03/01 12:52:23;;;;;;;14.52;7.72;;;;;;;7.53;37.49;101917.78;5046416;28;19943;-60
2022/03/01 12:55:27;;;;;;;12.63;8.15;;;;;;;7.63;36.36;101917.59;5048757;28;20135;-60
2022/03/01 12:58:32;;;;;;;12.43;7.65;;;;;;;7.68;35.62;101907.94;5049140;28;20110;-60
2022/03/01 13:01:40;;;;;;;12.65;8.02;;;;;;;8.12;36.46;101902.78;5049553;28;20513;-60
2022/03/01 13:04:45;;;;;;;18.65;8.18;;;;;;;8.49;34.62;101897.72;5049214;28;20438;-60
2022/03/01 13:07:48;;;;;;;9.10;7.18;;;;;;;9.04;33.91;101906.88;5047271;28;20479;-60
2022/03/01 13:10:52;;;;;;;;;;;;;;;9.03;34.29;101907.78;5049029;28;20066;-60
2022/03/01 13:13:58;;;;;;;12.60;9.18;;;;;;;9.49;31.89;101897.97;5048659;28;19923;-60
2022/03/01 13:17:04;;;;;;;15.10;8.68;;;;;;;9.72;33.13;101895.59;5047718;28;20075;-60
2022/03/01 13:20:08;;;;;;;11.85;8.32;;;;;;;9.87;32.56;101891.72;5047836;28;20219;-60
2022/03/01 13:23:11;;;;;;;13.40;8.85;;;;;;;9.73;32.61;101883.38;5049272;28;20052;-60
2022/03/01 13:26:15;;;;;;;9.32;7.20;;;;;;;9.46;33.75;101887.59;5049718;28;20574;-60
2022/03/01 13:29:28;;;;;;;12.73;8.30;;;;;;;9.25;31.92;101888.97;5048466;28;20405;-60
2022/03/01 13:32:32;;;;;;;13.05;8.73;;;;;;;9.08;31.94;101881.56;5048482;28;20114;-60
2022/03/01 13:35:36;;;;;;;11.90;8.80;;;;;;;8.85;32.09;101880.38;5048329;28;20098;-60
2022/03/01 13:38:39;;;;;;;10.32;8.07;;;;;;;8.57;32.47;101885.34;5042864;28;20079;-60
2022/03/01 13:41:48;;;;;;;13.02;8.75;;;;;;;8.84;33.07;101883.03;5047707;28;20098;-60
2022/03/01 13:44:52;;;;;;;12.07;8.13;;;;;;;8.84;32.40;101880.44;5046059;28;20052;-60
2022/03/01 13:47:55;;;;;;;13.13;7.65;;;;;;;8.39;32.34;101872.72;5037966;28;20534;-58
2022/03/01 13:51:07;;;;;;;13.85;8.57;;;;;;;8.77;32.44;101865.78;5038455;28;20044;-58
2022/03/01 13:54:10;;;;;;;11.00;7.60;;;;;;;9.03;32.96;101867.78;5057927;28;20526;-58
2022/03/01 13:57:31;;;;;;;;;;;;;;;9.27;32.75;101874.16;5046687;28;20043;-60
2022/03/01 14:00:47;;;;;;;11.57;7.15;;;;;;;9.59;31.98;101856.78;5047579;28;19981;-60
2022/03/01 14:04:00;;;;;;;10.85;7.80;;;;;;;9.58;31.95;101855.09;5047591;28;20040;-60
2022/03/01 14:07:03;;;;;;;10.85;7.72;;;;;;;9.36;31.14;101863.47;5045585;28;20076;-60
2022/03/01 14:10:07;;;;;;;12.95;7.90;;;;;;;9.22;32.96;101856.00;5046078;28;20055;-60
2022/03/01 14:13:23;;;;;;;12.63;7.70;;;;;;;8.81;31.07;101855.25;5046828;28;20044;-60
2022/03/01 14:16:27;;;;;;;11.38;7.97;;;;;;;8.95;32.69;101862.75;5048114;28;20548;-60